Time;durP1;ratioP1;P1;durP2;ratioP2;P2;SDS_P1;SDS_P2;PMS_P1;PMS_P2;Temp;Humidity;BMP_temperature;BMP_pressure;BME280_temperature;BME280_humidity;BME280_pressure;Samples;Min_cycle;Max_cycle;Signal;HPM_P1;HPM_P2
2021/04/22 00:00:21;;;;;;;7.00;6.40;;;12.70;30.70;;;;;;10486931;28;20734;-76
2021/04/22 00:05:26;;;;;;;7.63;6.93;;;12.70;30.70;;;;;;10485472;28;20299;-77
2021/04/22 00:10:35;;;;;;;8.10;7.40;;;12.70;31.00;;;;;;10488758;28;20224;-76
2021/04/22 00:15:38;;;;;;;6.90;6.30;;;12.60;31.00;;;;;;10487534;28;20688;-76
2021/04/22 00:20:42;;;;;;;8.67;7.87;;;12.50;30.60;;;;;;10487005;28;20240;-76
2021/04/22 00:25:45;;;;;;;7.60;6.90;;;12.40;31.00;;;;;;10487163;28;20228;-76
2021/04/22 00:30:47;;;;;;;7.63;6.93;;;12.40;30.90;;;;;;10483738;28;20252;-76
2021/04/22 00:35:51;;;;;;;7.70;7.00;;;12.30;30.70;;;;;;10485796;28;20307;-76
2021/04/22 00:40:53;;;;;;;6.83;6.23;;;12.20;30.70;;;;;;10486322;28;20905;-76
2021/04/22 00:45:55;;;;;;;7.37;6.67;;;12.20;30.50;;;;;;10487314;28;20444;-76
2021/04/22 00:50:59;;;;;;;6.03;5.47;;;12.10;30.70;;;;;;10481476;28;20315;-76
2021/04/22 00:56:01;;;;;;;8.13;7.33;;;12.00;30.80;;;;;;10481810;28;20783;-76
2021/04/22 01:01:04;;;;;;;7.30;6.60;;;11.90;30.90;;;;;;10483998;28;20665;-76
2021/04/22 01:06:08;;;;;;;7.77;7.07;;;11.80;30.70;;;;;;10486192;28;20862;-76
2021/04/22 01:11:12;;;;;;;5.77;5.27;;;11.70;30.90;;;;;;10485763;28;20303;-79
2021/04/22 01:16:15;;;;;;;6.00;5.40;;;11.60;30.90;;;;;;10484325;28;20233;-76
2021/04/22 01:21:24;;;;;;;6.23;5.67;;;11.50;31.00;;;;;;10484932;28;20794;-77
2021/04/22 01:26:27;;;;;;;6.50;5.90;;;11.50;31.60;;;;;;10478084;28;20256;-76
2021/04/22 01:31:29;;;;;;;6.00;5.47;;;11.50;31.10;;;;;;10482208;28;20255;-76
2021/04/22 01:36:34;;;;;;;5.57;5.07;;;11.40;31.00;;;;;;10481737;28;20224;-76
2021/04/22 01:41:36;;;;;;;5.60;5.10;;;11.40;31.20;;;;;;10482180;28;20235;-76
2021/04/22 01:46:38;;;;;;;5.90;5.40;;;11.40;31.10;;;;;;10485873;28;20228;-76
2021/04/22 01:51:42;;;;;;;9.77;7.13;;;11.40;31.10;;;;;;10481440;28;20224;-76
2021/04/22 01:56:44;;;;;;;8.00;7.20;;;11.40;31.30;;;;;;10484616;28;20297;-76
2021/04/22 02:01:46;;;;;;;7.67;6.87;;;11.20;31.00;;;;;;10480170;28;20308;-76
2021/04/22 02:06:49;;;;;;;7.57;6.87;;;10.90;31.30;;;;;;10478425;28;20221;-76
2021/04/22 02:11:52;;;;;;;8.10;7.30;;;10.80;31.70;;;;;;10477871;28;20311;-76
2021/04/22 02:16:54;;;;;;;7.17;6.50;;;10.60;31.50;;;;;;10489525;28;20266;-76
2021/04/22 02:21:57;;;;;;;7.70;6.83;;;10.50;31.80;;;;;;10493375;28;20601;-77
2021/04/22 02:26:59;;;;;;;7.53;6.83;;;10.50;32.00;;;;;;10496575;28;20637;-76
2021/04/22 02:32:02;;;;;;;6.90;6.30;;;10.50;31.90;;;;;;10495611;28;20294;-75
2021/04/22 02:37:06;;;;;;;7.70;6.97;;;10.40;31.80;;;;;;10495809;28;20235;-77
2021/04/22 02:42:09;;;;;;;8.73;7.67;;;10.30;32.00;;;;;;10494267;28;20220;-76
2021/04/22 02:47:14;;;;;;;7.40;6.70;;;10.30;32.20;;;;;;10495920;28;20232;-76
2021/04/22 02:52:17;;;;;;;6.57;5.97;;;10.30;32.10;;;;;;10493711;28;20232;-76
2021/04/22 02:57:19;;;;;;;7.03;6.40;;;10.30;32.20;;;;;;10493651;28;20234;-76
2021/04/22 03:02:21;;;;;;;7.80;7.00;;;10.30;32.00;;;;;;10495226;28;20684;-76
2021/04/22 03:07:24;;;;;;;8.27;7.47;;;10.30;32.00;;;;;;10498068;28;21603;-76
2021/04/22 03:12:27;;;;;;;7.73;7.03;;;10.20;32.20;;;;;;10495229;28;20258;-76
2021/04/22 03:17:29;;;;;;;6.90;6.03;;;10.20;32.10;;;;;;10492317;28;20642;-76
2021/04/22 03:22:32;;;;;;;9.73;8.83;;;10.10;32.00;;;;;;10495867;28;20338;-76
2021/04/22 03:27:35;;;;;;;8.57;7.73;;;10.00;32.50;;;;;;10487202;28;20722;-76
2021/04/22 03:32:38;;;;;;;9.10;8.10;;;10.00;32.50;;;;;;10490791;28;20311;-76
2021/04/22 03:37:42;;;;;;;6.67;6.03;;;10.00;32.70;;;;;;10488852;28;20229;-77
2021/04/22 03:42:44;;;;;;;7.80;7.17;;;10.00;32.80;;;;;;10486915;28;20216;-76
2021/04/22 03:47:46;;;;;;;8.20;7.50;;;10.00;32.80;;;;;;10487150;28;20314;-76
2021/04/22 03:52:49;;;;;;;8.50;7.70;;;10.00;32.80;;;;;;10487598;28;20667;-76
2021/04/22 03:57:52;;;;;;;8.53;7.37;;;10.00;33.30;;;;;;10490357;28;20293;-76
2021/04/22 04:02:54;;;;;;;9.03;8.13;;;10.00;33.10;;;;;;10483786;28;20315;-76
2021/04/22 04:07:57;;;;;;;8.70;7.83;;;10.00;33.20;;;;;;10481596;28;20239;-76
2021/04/22 04:12:59;;;;;;;8.47;7.67;;;10.00;33.50;;;;;;10484600;28;20240;-76
2021/04/22 04:18:03;;;;;;;7.97;7.27;;;10.00;33.30;;;;;;10486188;28;20663;-75
2021/04/22 04:23:08;;;;;;;9.27;8.33;;;10.00;33.50;;;;;;10481950;28;20692;-77
2021/04/22 04:28:10;;;;;;;7.60;6.90;;;10.00;33.60;;;;;;10483075;28;20794;-76
2021/04/22 04:33:13;;;;;;;8.53;7.73;;;10.00;33.50;;;;;;10485670;28;20303;-76
2021/04/22 04:38:16;;;;;;;7.90;7.20;;;10.10;33.70;;;;;;10486138;28;20236;-76
2021/04/22 04:43:19;;;;;;;7.80;7.10;;;10.00;33.60;;;;;;10482743;28;20252;-76
2021/04/22 04:48:21;;;;;;;9.73;8.83;;;10.00;33.60;;;;;;10492132;22;20237;-73
2021/04/22 04:53:24;;;;;;;8.83;7.93;;;10.00;33.70;;;;;;10474305;28;20249;-72
2021/04/22 04:58:26;;;;;;;9.93;8.57;;;10.00;33.90;;;;;;10464678;28;20231;-73
2021/04/22 05:03:28;;;;;;;7.23;6.33;;;10.00;33.90;;;;;;10466177;28;20590;-74
2021/04/22 05:08:32;;;;;;;10.20;9.20;;;9.90;34.80;;;;;;10470735;28;20234;-75
2021/04/22 05:13:34;;;;;;;9.17;8.30;;;9.90;35.40;;;;;;10460366;28;20220;-72
2021/04/22 05:18:36;;;;;;;10.77;9.83;;;9.90;35.40;;;;;;10465041;28;20299;-72
2021/04/22 05:23:39;;;;;;;11.33;10.30;;;10.00;34.70;;;;;;10465353;28;20236;-72
2021/04/22 05:28:41;;;;;;;11.53;10.33;;;10.00;35.40;;;;;;10468451;28;20282;-74
2021/04/22 05:33:45;;;;;;;11.53;10.30;;;10.10;35.30;;;;;;10467361;28;20224;-74
2021/04/22 05:38:48;;;;;;;11.20;10.17;;;10.10;35.10;;;;;;10464490;28;20227;-74
2021/04/22 05:43:50;;;;;;;12.17;11.07;;;10.20;35.60;;;;;;10483265;22;20598;-69
2021/04/22 05:48:53;;;;;;;11.80;10.70;;;10.30;35.30;;;;;;10474845;28;20764;-70
2021/04/22 05:53:57;;;;;;;18.77;16.97;;;10.40;35.50;;;;;;10467572;28;20236;-70
2021/04/22 05:59:00;;;;;;;14.30;12.77;;;10.40;35.90;;;;;;10462413;28;20220;-70
2021/04/22 06:04:02;;;;;;;16.07;12.60;;;10.50;35.70;;;;;;10463782;28;20316;-70
2021/04/22 06:09:06;;;;;;;13.33;12.03;;;10.60;36.10;;;;;;10467047;28;20235;-70
2021/04/22 06:14:09;;;;;;;13.90;12.50;;;10.80;36.70;;;;;;10468232;28;20244;-70
2021/04/22 06:19:11;;;;;;;14.50;13.00;;;10.90;36.20;;;;;;10462782;28;20224;-69
2021/04/22 06:24:14;;;;;;;13.80;12.40;;;11.00;36.50;;;;;;10460440;28;20323;-69
2021/04/22 06:29:16;;;;;;;13.90;12.57;;;11.10;36.70;;;;;;10467063;28;20229;-70
2021/04/22 06:34:19;;;;;;;13.17;11.77;;;11.20;36.50;;;;;;10467167;28;20225;-70
2021/04/22 06:39:22;;;;;;;13.03;11.73;;;11.30;36.50;;;;;;10466196;28;20229;-69
2021/04/22 06:44:24;;;;;;;14.10;12.70;;;11.40;36.70;;;;;;10459024;28;20228;-70
2021/04/22 06:49:27;;;;;;;12.67;11.47;;;11.50;36.50;;;;;;10462030;28;20703;-70
2021/04/22 06:54:30;;;;;;;13.47;12.23;;;11.70;36.60;;;;;;10457182;28;20303;-70
2021/04/22 06:59:32;;;;;;;13.23;11.97;;;11.80;36.60;;;;;;10460204;28;20224;-69
2021/04/22 07:04:35;;;;;;;13.43;11.90;;;11.90;36.10;;;;;;10475343;28;20235;-70
2021/04/22 07:09:38;;;;;;;13.43;12.13;;;12.10;36.30;;;;;;10476547;28;20655;-69
2021/04/22 07:14:40;;;;;;;13.37;12.07;;;12.20;36.30;;;;;;10475950;28;20394;-70
2021/04/22 07:19:42;;;;;;;14.17;12.77;;;12.30;36.00;;;;;;10476899;28;20220;-70
2021/04/22 07:24:46;;;;;;;13.20;11.90;;;12.40;36.00;;;;;;10469114;28;20677;-70
2021/04/22 07:29:48;;;;;;;13.80;12.13;;;12.60;36.20;;;;;;10469874;28;20245;-70
2021/04/22 07:34:51;;;;;;;13.33;12.03;;;12.80;36.30;;;;;;10477613;28;20667;-70
2021/04/22 07:39:54;;;;;;;14.00;12.17;;;12.90;36.20;;;;;;10477395;28;20220;-69
2021/04/22 07:44:56;;;;;;;14.00;12.60;;;13.10;36.20;;;;;;10474790;28;20344;-70
2021/04/22 07:49:59;;;;;;;14.17;12.77;;;13.30;36.10;;;;;;10473375;28;20310;-70
2021/04/22 07:55:05;;;;;;;15.07;13.43;;;13.40;35.90;;;;;;10471244;28;20230;-70
2021/04/22 08:00:10;;;;;;;14.83;13.17;;;13.50;35.80;;;;;;10468137;28;20238;-70
2021/04/22 08:05:16;;;;;;;15.27;13.87;;;13.60;35.30;;;;;;10476294;28;20239;-70
2021/04/22 08:10:41;;;;;;;15.97;14.37;;;13.60;35.10;;;;;;10471130;28;20225;-70
2021/04/22 08:15:45;;;;;;;20.37;18.27;;;13.60;35.20;;;;;;10471470;28;20311;-70
2021/04/22 08:20:48;;;;;;;19.47;17.57;;;13.70;35.10;;;;;;10463506;28;20220;-70
2021/04/22 08:25:54;;;;;;;19.40;17.60;;;13.70;34.90;;;;;;10466292;28;20278;-67
2021/04/22 08:30:59;;;;;;;19.30;17.50;;;13.70;35.00;;;;;;10468303;28;20309;-67
2021/04/22 08:36:03;;;;;;;26.63;24.20;;;13.70;35.10;;;;;;10472697;28;20243;-67
2021/04/22 08:41:06;;;;;;;24.40;22.10;;;13.70;34.90;;;;;;10462297;28;20290;-67
2021/04/22 08:46:10;;;;;;;22.57;20.37;;;13.80;35.20;;;;;;10465515;28;20224;-67
2021/04/22 08:51:13;;;;;;;31.73;28.73;;;13.80;35.00;;;;;;10468393;28;20237;-70
2021/04/22 08:56:18;;;;;;;32.97;29.83;;;13.90;35.10;;;;;;10461942;28;20924;-70
2021/04/22 09:01:22;;;;;;;28.17;25.47;;;14.00;35.10;;;;;;10467526;28;20231;-70
2021/04/22 09:06:24;;;;;;;22.90;20.60;;;14.10;35.20;;;;;;10473174;28;20233;-70
2021/04/22 09:11:27;;;;;;;20.13;18.23;;;14.20;35.00;;;;;;10474550;28;20324;-70
2021/04/22 09:16:30;;;;;;;19.07;17.27;;;14.30;34.70;;;;;;10473701;28;20315;-70
2021/04/22 09:21:36;;;;;;;17.87;16.17;;;14.30;34.50;;;;;;10471182;28;20229;-70
2021/04/22 09:26:44;;;;;;;17.50;15.73;;;14.30;34.10;;;;;;10480046;28;20246;-70
2021/04/22 09:31:46;;;;;;;17.00;15.40;;;14.20;34.00;;;;;;10471228;28;20663;-70
2021/04/22 09:36:51;;;;;;;15.57;14.00;;;14.10;34.20;;;;;;10469230;28;20431;-70
2021/04/22 09:41:58;;;;;;;16.30;14.70;;;14.10;34.30;;;;;;10466243;28;20221;-66
2021/04/22 09:47:04;;;;;;;15.03;13.43;;;14.20;34.20;;;;;;10465688;28;20252;-67
2021/04/22 09:52:08;;;;;;;14.33;13.03;;;14.30;34.50;;;;;;10464661;28;20240;-67
2021/04/22 09:57:20;;;;;;;15.40;13.83;;;14.40;34.40;;;;;;10462639;28;20220;-69
2021/04/22 10:02:23;;;;;;;13.40;12.20;;;14.50;33.50;;;;;;10473220;28;20232;-70
2021/04/22 10:07:28;;;;;;;12.70;11.50;;;14.60;33.50;;;;;;10469180;28;20225;-70
2021/04/22 10:12:32;;;;;;;12.67;11.47;;;14.70;33.40;;;;;;10464761;28;20239;-70
2021/04/22 10:17:34;;;;;;;14.77;11.70;;;14.90;33.60;;;;;;10469094;28;20350;-70
2021/04/22 10:22:38;;;;;;;13.93;12.60;;;15.20;33.70;;;;;;10470551;28;20225;-70
2021/04/22 10:27:42;;;;;;;13.93;12.53;;;15.30;33.00;;;;;;10461115;28;20315;-70
2021/04/22 10:32:44;;;;;;;14.17;12.40;;;15.40;32.80;;;;;;10462119;28;20667;-70
2021/04/22 10:37:50;;;;;;;12.53;11.37;;;15.50;33.10;;;;;;10467821;28;20216;-70
2021/04/22 10:42:55;;;;;;;12.00;10.80;;;15.60;32.70;;;;;;10471008;28;20221;-70
2021/04/22 10:47:58;;;;;;;15.13;11.17;;;15.70;32.70;;;;;;10474658;28;20224;-70
2021/04/22 10:53:02;;;;;;;10.97;9.97;;;15.80;33.50;;;;;;10472579;28;20634;-70
2021/04/22 10:58:16;;;;;;;11.03;10.03;;;15.80;32.20;;;;;;10480113;28;20216;-70
2021/04/22 11:03:27;;;;;;;11.30;10.30;;;15.90;32.00;;;;;;10467154;28;20351;-70
2021/04/22 11:08:38;;;;;;;12.93;11.73;;;16.00;31.20;;;;;;10465369;28;20220;-70
2021/04/22 11:13:42;;;;;;;11.90;10.63;;;16.10;30.40;;;;;;10464227;28;20224;-70
2021/04/22 11:18:46;;;;;;;12.27;10.20;;;16.10;31.20;;;;;;10464864;28;20220;-70
2021/04/22 11:23:49;;;;;;;11.40;10.27;;;16.00;30.90;;;;;;10463993;28;20780;-70
2021/04/22 11:28:55;;;;;;;11.47;10.37;;;15.90;30.90;;;;;;10463241;28;20321;-70
2021/04/22 11:34:07;;;;;;;10.73;9.63;;;15.90;30.60;;;;;;10462666;28;20392;-67
2021/04/22 11:39:09;;;;;;;10.70;9.60;;;15.90;30.60;;;;;;10466173;28;20227;-70
2021/04/22 11:44:13;;;;;;;9.60;8.57;;;15.90;31.00;;;;;;10506035;22;20804;-69
2021/04/22 11:49:25;;;;;;;9.80;8.80;;;16.00;30.50;;;;;;10486567;28;20230;-69
2021/04/22 11:54:30;;;;;;;9.30;8.07;;;16.20;29.70;;;;;;10464990;28;20320;-70
2021/04/22 11:59:35;;;;;;;9.10;7.40;;;16.30;29.90;;;;;;10450076;28;20248;-71
2021/04/22 12:04:40;;;;;;;8.10;7.30;;;16.40;29.50;;;;;;10448205;28;20320;-71
2021/04/22 12:09:44;;;;;;;7.73;6.80;;;16.50;29.30;;;;;;10448281;28;20303;-71
2021/04/22 12:14:52;;;;;;;7.30;5.90;;;16.50;28.70;;;;;;10448709;28;20225;-71
2021/04/22 12:19:57;;;;;;;3.73;3.43;;;16.60;26.80;;;;;;10442731;28;20299;-71
2021/04/22 12:25:01;;;;;;;3.20;2.90;;;16.70;26.90;;;;;;10449633;28;20225;-71
2021/04/22 12:30:19;;;;;;;3.23;2.77;;;16.70;26.30;;;;;;10441397;28;20277;-71
2021/04/22 12:35:23;;;;;;;4.60;3.27;;;16.70;21.40;;;;;;10443757;28;20810;-71
2021/04/22 12:40:25;;;;;;;3.50;2.80;;;16.60;23.10;;;;;;10444604;28;20315;-71
2021/04/22 12:45:29;;;;;;;3.80;3.40;;;16.60;23.00;;;;;;10447618;28;20321;-71
2021/04/22 12:50:39;;;;;;;4.50;2.93;;;16.60;23.90;;;;;;10442059;28;20935;-71
2021/04/22 12:55:45;;;;;;;3.77;2.77;;;16.60;23.70;;;;;;10445282;28;20237;-72
2021/04/22 13:00:50;;;;;;;3.23;2.53;;;16.70;23.60;;;;;;10444795;28;20648;-72
2021/04/22 13:05:55;;;;;;;6.00;3.07;;;16.80;23.20;;;;;;10443142;28;20235;-72
2021/04/22 13:10:59;;;;;;;5.60;3.10;;;16.90;22.10;;;;;;10444117;28;20304;-72
2021/04/22 13:16:07;;;;;;;3.67;2.77;;;16.90;22.50;;;;;;10445689;28;20316;-72
2021/04/22 13:21:17;;;;;;;4.97;2.73;;;16.80;20.00;;;;;;10446661;28;20248;-72
2021/04/22 13:26:23;;;;;;;3.73;2.60;;;16.80;20.30;;;;;;10440658;28;20232;-72
2021/04/22 13:31:27;;;;;;;3.67;2.73;;;16.80;20.80;;;;;;10443653;28;20229;-72
2021/04/22 13:36:29;;;;;;;3.97;2.83;;;16.80;21.40;;;;;;10443102;28;20224;-71
2021/04/22 13:41:31;;;;;;;2.80;2.43;;;16.80;21.90;;;;;;10445735;28;20260;-71
2021/04/22 13:46:35;;;;;;;3.80;2.60;;;16.90;21.20;;;;;;10444710;28;20256;-72
2021/04/22 13:51:37;;;;;;;4.37;2.50;;;16.90;20.40;;;;;;10445892;28;20221;-72
2021/04/22 13:56:41;;;;;;;3.00;2.57;;;16.80;21.00;;;;;;10440344;28;20392;-72
2021/04/22 14:01:44;;;;;;;2.83;2.30;;;16.80;20.60;;;;;;10444892;28;20307;-72
2021/04/22 14:06:50;;;;;;;2.80;2.53;;;16.80;20.70;;;;;;10443797;28;20270;-72
2021/04/22 14:11:53;;;;;;;3.23;2.43;;;16.90;19.40;;;;;;10442930;28;20303;-72
2021/04/22 14:16:56;;;;;;;2.97;2.30;;;16.90;19.20;;;;;;10439347;28;20217;-72
2021/04/22 14:22:00;;;;;;;2.90;2.07;;;16.80;19.00;;;;;;10437132;28;20220;-71
2021/04/22 14:27:02;;;;;;;2.73;2.40;;;16.90;19.60;;;;;;10433087;28;20311;-71
2021/04/22 14:32:05;;;;;;;3.37;2.60;;;16.90;19.90;;;;;;10437089;28;20256;-71
2021/04/22 14:37:07;;;;;;;5.97;2.50;;;16.90;19.60;;;;;;10434751;28;20225;-71
2021/04/22 14:42:10;;;;;;;6.20;2.50;;;17.00;20.10;;;;;;10442869;28;20221;-71
2021/04/22 14:47:13;;;;;;;3.77;2.40;;;17.00;19.60;;;;;;10443828;28;20689;-71
2021/04/22 14:52:15;;;;;;;3.60;2.60;;;17.00;19.40;;;;;;10443860;28;20233;-71
2021/04/22 14:57:18;;;;;;;3.57;2.30;;;17.00;19.20;;;;;;10442939;28;20252;-71
2021/04/22 15:02:21;;;;;;;2.60;2.40;;;17.00;20.20;;;;;;10442550;28;20322;-71
2021/04/22 15:07:26;;;;;;;3.80;2.53;;;17.10;19.70;;;;;;10442334;28;20263;-71
2021/04/22 15:12:30;;;;;;;2.73;2.33;;;17.10;18.70;;;;;;10440866;28;20843;-71
2021/04/22 15:17:33;;;;;;;4.73;2.30;;;17.20;19.20;;;;;;10437818;28;20658;-71
2021/04/22 15:22:35;;;;;;;3.17;2.27;;;17.20;19.10;;;;;;10443330;28;20302;-69
2021/04/22 15:27:44;;;;;;;3.23;2.20;;;17.20;19.00;;;;;;10446000;28;20595;-69
2021/04/22 15:32:48;;;;;;;4.07;2.00;;;17.20;18.50;;;;;;10449266;28;20260;-69
2021/04/22 15:37:53;;;;;;;2.80;2.17;;;17.20;18.90;;;;;;10444661;28;20220;-69
2021/04/22 15:42:57;;;;;;;3.47;2.30;;;17.30;18.60;;;;;;10450961;28;20312;-68
2021/04/22 15:48:01;;;;;;;3.10;2.13;;;17.20;17.60;;;;;;10449281;28;20282;-69
2021/04/22 15:53:05;;;;;;;4.77;2.40;;;17.20;17.80;;;;;;10449164;28;20312;-70
2021/04/22 15:58:07;;;;;;;4.03;2.30;;;17.10;18.10;;;;;;10445851;28;20231;-70
2021/04/22 16:03:11;;;;;;;2.87;2.30;;;17.10;18.80;;;;;;10446891;28;20641;-70
2021/04/22 16:08:18;;;;;;;4.83;2.50;;;17.10;17.90;;;;;;10449140;28;20233;-70
2021/04/22 16:13:21;;;;;;;4.50;2.67;;;17.20;17.80;;;;;;10439878;28;20320;-70
2021/04/22 16:18:24;;;;;;;5.07;2.50;;;17.10;17.50;;;;;;10441693;28;20308;-69
2021/04/22 16:23:27;;;;;;;3.23;2.30;;;17.20;17.50;;;;;;10446497;28;20312;-70
2021/04/22 16:28:30;;;;;;;4.00;2.30;;;17.20;18.00;;;;;;10449511;28;20315;-70
2021/04/22 16:33:33;;;;;;;5.57;2.57;;;17.10;16.30;;;;;;10443502;28;20320;-70
2021/04/22 16:38:35;;;;;;;3.50;2.40;;;17.00;16.00;;;;;;10446333;28;20316;-69
2021/04/22 16:43:38;;;;;;;6.03;2.03;;;17.00;16.50;;;;;;10442856;28;21319;-70
2021/04/22 16:48:41;;;;;;;3.67;2.00;;;17.00;17.10;;;;;;10444812;28;20255;-70
2021/04/22 16:53:44;;;;;;;4.03;2.17;;;17.10;16.80;;;;;;10441503;28;20559;-70
2021/04/22 16:58:46;;;;;;;2.97;1.90;;;17.20;17.20;;;;;;10439630;28;20307;-70
2021/04/22 17:04:04;;;;;;;4.53;2.30;;;17.20;17.00;;;;;;10447009;28;20278;-70
2021/04/22 17:09:07;;;;;;;3.67;2.10;;;17.20;16.70;;;;;;10443690;28;20307;-70
2021/04/22 17:14:09;;;;;;;2.50;1.87;;;17.20;16.90;;;;;;10441055;28;20248;-70
2021/04/22 17:19:13;;;;;;;3.37;1.90;;;17.20;17.60;;;;;;10443412;28;20240;-70
2021/04/22 17:24:15;;;;;;;3.20;2.10;;;17.20;16.60;;;;;;10440434;28;20235;-70
2021/04/22 17:29:18;;;;;;;3.53;2.50;;;17.10;16.90;;;;;;10444558;28;20304;-70
2021/04/22 17:34:21;;;;;;;3.10;2.00;;;17.10;17.00;;;;;;10444672;28;20225;-70
2021/04/22 17:39:23;;;;;;;4.37;2.37;;;16.90;17.00;;;;;;10444353;28;20282;-71
2021/04/22 17:44:26;;;;;;;2.47;1.90;;;16.90;17.10;;;;;;10441739;28;20253;-70
2021/04/22 17:49:29;;;;;;;5.67;2.10;;;16.80;17.10;;;;;;10442544;28;20225;-71
2021/04/22 17:54:32;;;;;;;2.57;2.00;;;16.60;16.70;;;;;;10437683;28;20308;-71
2021/04/22 17:59:34;;;;;;;4.33;2.20;;;16.60;17.20;;;;;;10443422;28;20220;-71
2021/04/22 18:04:37;;;;;;;2.73;2.00;;;16.50;17.30;;;;;;10442954;28;20311;-71
2021/04/22 18:09:39;;;;;;;5.63;2.33;;;16.40;17.10;;;;;;10441453;28;20585;-71
2021/04/22 18:14:41;;;;;;;3.33;2.17;;;16.30;17.20;;;;;;10442907;28;20217;-70
2021/04/22 18:19:45;;;;;;;2.63;1.90;;;16.20;17.50;;;;;;10442390;28;20296;-71
2021/04/22 18:24:50;;;;;;;3.37;2.10;;;16.20;17.30;;;;;;10444032;28;20224;-71
2021/04/22 18:29:52;;;;;;;3.37;2.17;;;16.10;17.60;;;;;;10443565;28;20221;-71
2021/04/22 18:34:55;;;;;;;3.00;1.90;;;16.00;17.70;;;;;;10443952;28;20332;-72
2021/04/22 18:39:58;;;;;;;3.30;2.20;;;15.90;17.60;;;;;;10436642;28;20217;-71
2021/04/22 18:45:00;;;;;;;3.70;2.07;;;15.80;17.70;;;;;;10442070;28;20239;-71
2021/04/22 18:50:05;;;;;;;5.13;2.27;;;15.80;17.70;;;;;;10442316;28;20225;-72
2021/04/22 18:55:10;;;;;;;4.63;2.30;;;15.60;17.30;;;;;;10444770;28;20647;-71
2021/04/22 19:00:16;;;;;;;5.63;2.30;;;15.50;17.50;;;;;;10453079;28;20302;-72
2021/04/22 19:05:24;;;;;;;3.33;2.13;;;15.40;17.50;;;;;;10440037;28;20254;-72
2021/04/22 19:10:27;;;;;;;3.40;2.27;;;15.30;17.30;;;;;;10448137;28;20304;-72
2021/04/22 19:15:30;;;;;;;5.00;1.93;;;15.20;17.70;;;;;;10448160;28;20253;-72
2021/04/22 19:20:35;;;;;;;3.23;2.63;;;15.10;17.80;;;;;;10438892;28;20240;-72
2021/04/22 19:25:39;;;;;;;4.67;2.57;;;14.90;18.30;;;;;;10440789;28;20225;-72
2021/04/22 19:30:42;;;;;;;3.53;2.40;;;14.80;17.70;;;;;;10444343;28;20324;-72
2021/04/22 19:35:45;;;;;;;3.60;2.20;;;14.70;17.90;;;;;;10434709;28;20636;-72
2021/04/22 19:40:49;;;;;;;2.87;2.47;;;14.60;17.90;;;;;;10444024;28;20696;-72
2021/04/22 19:45:53;;;;;;;4.87;2.30;;;14.60;18.00;;;;;;10443907;28;20283;-72
2021/04/22 19:51:01;;;;;;;2.97;1.97;;;14.50;18.00;;;;;;10446608;28;20321;-72
2021/04/22 19:56:04;;;;;;;5.60;2.83;;;14.50;18.00;;;;;;10441652;28;20740;-72
2021/04/22 20:01:09;;;;;;;4.10;2.63;;;14.40;18.00;;;;;;10444772;28;20319;-72
2021/04/22 20:06:13;;;;;;;4.07;2.70;;;14.30;17.80;;;;;;10441550;28;20228;-72
2021/04/22 20:11:16;;;;;;;3.33;2.40;;;14.30;18.00;;;;;;10441514;28;20255;-72
2021/04/22 20:16:18;;;;;;;4.10;2.43;;;14.20;18.00;;;;;;10443072;28;20918;-72
2021/04/22 20:21:21;;;;;;;3.97;2.13;;;14.10;18.80;;;;;;10442516;28;20315;-72
2021/04/22 20:26:24;;;;;;;4.90;2.77;;;14.00;18.30;;;;;;10442326;28;20236;-72
2021/04/22 20:31:26;;;;;;;4.07;2.97;;;13.90;18.50;;;;;;10444762;28;20334;-72
2021/04/22 20:36:29;;;;;;;6.07;3.70;;;13.80;18.70;;;;;;10439667;28;20743;-72
2021/04/22 20:41:32;;;;;;;4.40;3.20;;;13.60;18.70;;;;;;10443415;28;20669;-72
2021/04/22 20:46:34;;;;;;;5.23;3.33;;;13.40;18.90;;;;;;10439795;28;20328;-72
2021/04/22 20:51:37;;;;;;;6.17;3.40;;;13.30;19.10;;;;;;10441644;28;20313;-72
2021/04/22 20:56:49;;;;;;;5.63;3.50;;;13.10;19.20;;;;;;10440567;28;20303;-72
2021/04/22 21:01:53;;;;;;;4.90;3.37;;;13.00;19.30;;;;;;10436843;28;20311;-72
2021/04/22 21:06:56;;;;;;;8.43;3.60;;;12.80;19.50;;;;;;10442517;28;20248;-73
2021/04/22 21:12:00;;;;;;;7.90;4.13;;;12.70;19.60;;;;;;10445496;28;20305;-73
2021/04/22 21:17:02;;;;;;;6.43;3.80;;;12.50;19.80;;;;;;10443183;28;20315;-73
2021/04/22 21:22:06;;;;;;;6.43;4.17;;;12.30;20.10;;;;;;10442550;28;20224;-73
2021/04/22 21:27:10;;;;;;;5.93;4.20;;;12.10;20.00;;;;;;10439645;28;20225;-73
2021/04/22 21:32:14;;;;;;;6.07;3.77;;;12.00;19.90;;;;;;10441853;28;20245;-73
2021/04/22 21:37:19;;;;;;;4.53;3.70;;;11.80;19.90;;;;;;10435724;28;20228;-73
2021/04/22 21:42:21;;;;;;;5.10;3.93;;;11.70;20.20;;;;;;10438673;28;20237;-74
2021/04/22 21:47:23;;;;;;;7.83;3.77;;;11.60;20.10;;;;;;10439268;28;20228;-73
2021/04/22 21:52:27;;;;;;;5.43;3.63;;;11.40;20.30;;;;;;10440856;28;20253;-74
2021/04/22 21:57:29;;;;;;;6.07;3.90;;;11.30;20.50;;;;;;10440495;28;20311;-73
2021/04/22 22:02:31;;;;;;;6.07;4.13;;;11.10;20.50;;;;;;10444957;28;20324;-73
2021/04/22 22:07:34;;;;;;;6.33;3.93;;;10.90;20.60;;;;;;10443627;28;20274;-73
2021/04/22 22:12:36;;;;;;;6.67;3.83;;;10.70;20.70;;;;;;10442681;28;20312;-73
2021/04/22 22:17:41;;;;;;;7.07;4.10;;;10.50;20.70;;;;;;10444457;28;20217;-73
2021/04/22 22:22:46;;;;;;;7.87;4.00;;;10.30;20.90;;;;;;10443192;28;20728;-73
2021/04/22 22:27:50;;;;;;;5.43;4.07;;;10.10;21.30;;;;;;10444485;28;20248;-73
2021/04/22 22:32:53;;;;;;;7.67;4.63;;;10.00;21.50;;;;;;10451070;28;20224;-73
2021/04/22 22:37:57;;;;;;;8.00;4.40;;;9.90;22.40;;;;;;10453925;28;20251;-73
2021/04/22 22:43:01;;;;;;;4.23;3.60;;;9.90;22.60;;;;;;10448561;28;20770;-73
2021/04/22 22:48:04;;;;;;;7.10;3.60;;;10.00;21.90;;;;;;10452007;28;20235;-73
2021/04/22 22:53:08;;;;;;;7.73;3.97;;;9.90;22.40;;;;;;10449873;28;20700;-73
2021/04/22 22:58:11;;;;;;;7.17;4.00;;;9.90;22.60;;;;;;10448722;28;20231;-73
2021/04/22 23:03:15;;;;;;;5.13;3.40;;;9.80;22.60;;;;;;10452799;28;20776;-73
2021/04/22 23:08:18;;;;;;;9.17;4.57;;;9.80;22.70;;;;;;10450808;28;20319;-73
2021/04/22 23:13:21;;;;;;;13.07;7.70;;;9.70;22.80;;;;;;10452061;28;20748;-73
2021/04/22 23:18:24;;;;;;;16.50;9.07;;;9.70;22.70;;;;;;10446005;28;20299;-73
2021/04/22 23:23:27;;;;;;;16.93;8.47;;;9.60;22.70;;;;;;10448898;28;20248;-74
2021/04/22 23:28:29;;;;;;;7.10;5.17;;;9.50;22.80;;;;;;10449307;28;20308;-73
2021/04/22 23:33:31;;;;;;;7.03;4.40;;;9.30;22.70;;;;;;10449706;28;20231;-73
2021/04/22 23:38:35;;;;;;;6.17;4.20;;;9.10;23.00;;;;;;10440789;28;20279;-73
2021/04/22 23:43:38;;;;;;;6.07;4.20;;;8.90;23.20;;;;;;10445504;28;20315;-73
2021/04/22 23:48:42;;;;;;;5.83;3.93;;;8.80;23.30;;;;;;10448597;28;20248;-73
2021/04/22 23:53:45;;;;;;;6.00;4.30;;;8.70;23.40;;;;;;10450441;28;20279;-73
2021/04/22 23:58:48;;;;;;;4.90;3.20;;;8.70;23.50;;;;;;10445353;28;20224;-73
